»·PEaware :: N1XC KSNA-L35

N1XC :: KSNA-L35

FLIGHT INFORMATION

Flight Status: Arrived
Operator: Privately registered:
United States
More flights under this callsign
Pilot: Adam S. (8156)
Aircraft: CESSNA 172 SKYHAWK
(C172)
More flights by this aircraft type
Origin: KSNA John Wayne-Orange Co
United States
Destination: L35 Big Bear City
United States
More flights between these airports :: More routes between these airports
Route: +GFS V514 CONES KTRM
File this flight plan on PilotEdge
Remarks:
Altitude:
(Current/Filed)
8,500ft
Speed:
(Current/Filed)
150kts
Departed: 15-Dec-17 09:38 PM
Arrived: 15-Dec-17 10:20 PM
Distance/Time
Traveled:
62nm/0:41
Distance/Time
To Go:
Arrived

Flight Plot

Page will automatically refresh every two minutes.

Flight plan parsing failed; only flown route is shown


Map Options




Map Legend


Flown Route
Filed Route
Departure Airport
Arrival Airport
Navaid (VOR, NDB)
Fix

Horizontal Profiles

Position Reports

Time Latitude Longitude Heading Altitude Ground
Speed
15-Dec-17 21:34 33.671521 -117.867198 26 60ft 0kts
15-Dec-17 21:35 33.671521 -117.867198 26 60ft 0kts
15-Dec-17 21:36 33.671521 -117.867198 26 60ft 0kts
15-Dec-17 21:37 33.671521 -117.867198 26 60ft 0kts
15-Dec-17 21:38 33.671521 -117.867198 26 60ft 0kts
15-Dec-17 21:39 33.672858 -117.867386 42 60ft 8kts
15-Dec-17 21:40 33.674457 -117.866862 30 60ft 8kts
15-Dec-17 21:41 33.678281 -117.864411 27 60ft 18kts
15-Dec-17 21:42 33.679947 -117.863607 301 60ft 0kts
15-Dec-17 21:43 33.679405 -117.864619 214 60ft 29kts
15-Dec-17 21:44 33.663130 -117.877028 184 925ft 78kts
15-Dec-17 21:45 33.660700 -117.851273 59 1867ft 91kts
15-Dec-17 21:46 33.681180 -117.835981 35 2885ft 87kts
15-Dec-17 21:47 33.702198 -117.811666 48 3192ft 122kts
15-Dec-17 21:48 33.724545 -117.777845 52 3160ft 130kts
15-Dec-17 21:49 33.742795 -117.748105 52 4047ft 96kts
15-Dec-17 21:50 33.757320 -117.724131 52 5035ft 83kts
15-Dec-17 21:51 33.769472 -117.704045 52 6014ft 64kts
15-Dec-17 21:52 33.774379 -117.685426 66 6700ft 69kts
15-Dec-17 21:53 33.791356 -117.662589 49 7201ft 103kts
15-Dec-17 21:54 33.809210 -117.635242 51 7798ft 104kts
15-Dec-17 21:55 33.826204 -117.607446 54 8394ft 102kts
15-Dec-17 21:56 33.842788 -117.579659 53 8990ft 102kts
15-Dec-17 21:57 33.858119 -117.553699 46 9577ft 90kts
15-Dec-17 21:58 33.872611 -117.529299 41 10159ft 92kts
15-Dec-17 21:59 33.888409 -117.502826 45 10595ft 115kts
15-Dec-17 22:00 33.909170 -117.467234 47 10586ft 136kts
15-Dec-17 22:01 33.931147 -117.429635 47 10586ft 138kts
15-Dec-17 22:02 33.953250 -117.391953 47 10586ft 138kts
15-Dec-17 22:03 33.975445 -117.354123 47 10586ft 138kts
15-Dec-17 22:04 33.996957 -117.316587 48 10643ft 133kts
15-Dec-17 22:05 34.016831 -117.282323 46 11023ft 120kts
15-Dec-17 22:06 34.035841 -117.249851 45 11410ft 117kts
15-Dec-17 22:07 34.054564 -117.217816 45 11801ft 116kts
15-Dec-17 22:08 34.075813 -117.181340 47 11655ft 136kts
15-Dec-17 22:09 34.102507 -117.159733 347 11568ft 123kts
15-Dec-17 22:10 34.138853 -117.164614 347 10569ft 139kts
15-Dec-17 22:11 34.177747 -117.172166 4 9697ft 138kts
15-Dec-17 22:12 34.214425 -117.167687 358 9463ft 122kts
15-Dec-17 22:13 34.247845 -117.172912 349 9579ft 121kts
15-Dec-17 22:14 34.269708 -117.146102 91 9658ft 125kts
15-Dec-17 22:15 34.263140 -117.103830 101 9653ft 128kts
15-Dec-17 22:16 34.250009 -117.065984 151 9651ft 126kts
15-Dec-17 22:17 34.219001 -117.046019 153 9653ft 126kts
15-Dec-17 22:18 34.197264 -117.018211 69 9654ft 128kts
15-Dec-17 22:19 34.216321 -116.981534 55 9653ft 129kts
15-Dec-17 22:20 34.235871 -116.945406 55 9653ft 129kts
15-Dec-17 22:21 34.254826 -116.908682 72 9664ft 128kts
15-Dec-17 22:22 34.253393 -116.869085 95 8494ft 105kts
15-Dec-17 22:23 34.249368 -116.836743 97 8057ft 97kts
15-Dec-17 22:24 34.257598 -116.813799 347 7881ft 81kts
15-Dec-17 22:25 34.263889 -116.840013 270 6966ft 78kts
15-Dec-17 22:26 34.264295 -116.853674 328 6752ft 9kts

Navigation Log

Ident Type
Flight plan parsing failed, navigation log unavailable